createdAt,value
2023-04-16T00:00:47.571Z,9.443671
2023-04-16T00:01:47.728Z,9.443690
2023-04-16T00:02:47.705Z,9.443725
2023-04-16T00:03:48.806Z,9.443703
2023-04-16T00:04:48.594Z,9.443722
2023-04-16T00:05:47.594Z,9.443682
2023-04-16T00:06:47.727Z,9.443744
2023-04-16T00:07:47.634Z,9.443473
2023-04-16T00:08:47.544Z,9.443579
2023-04-16T00:09:47.639Z,9.443674
2023-04-16T00:10:47.680Z,9.443791
2023-04-16T00:11:47.517Z,9.443737
2023-04-16T00:12:47.516Z,9.443730
2023-04-16T00:13:47.515Z,9.443729
2023-04-16T00:14:47.703Z,9.443728
2023-04-16T00:15:47.531Z,9.443570
2023-04-16T00:16:47.513Z,9.443529
2023-04-16T00:17:47.535Z,9.443615
2023-04-16T00:18:47.912Z,9.443692
2023-04-16T00:19:47.576Z,9.443782
2023-04-16T00:20:47.943Z,9.443761
2023-04-16T00:21:47.688Z,9.443740
2023-04-16T00:22:47.726Z,9.443717
2023-04-16T00:23:47.604Z,9.443696
2023-04-16T00:24:47.437Z,9.443664
2023-04-16T00:25:47.708Z,9.443741
2023-04-16T00:26:47.426Z,9.443756
2023-04-16T00:27:47.431Z,9.443779
2023-04-16T00:28:47.537Z,9.443843
2023-04-16T00:29:47.477Z,9.443753
2023-04-16T00:30:47.483Z,9.443753
2023-04-16T00:31:47.571Z,9.443732
2023-04-16T00:32:47.718Z,9.443782
2023-04-16T00:33:47.391Z,9.443725
2023-04-16T00:34:47.423Z,9.443693
2023-04-16T00:35:47.368Z,9.443719
2023-04-16T00:36:47.386Z,9.443711
2023-04-16T00:37:47.367Z,9.443722
2023-04-16T00:38:47.422Z,9.443736
2023-04-16T00:39:47.346Z,9.443765
2023-04-16T00:40:47.373Z,9.443741
2023-04-16T00:41:47.395Z,9.443699
2023-04-16T00:42:47.330Z,9.443755
2023-04-16T00:43:47.359Z,9.443784
2023-04-16T00:44:47.466Z,9.443837
2023-04-16T00:45:47.534Z,9.443919
2023-04-16T00:46:47.571Z,9.443905
2023-04-16T00:47:47.425Z,9.443840
2023-04-16T00:48:47.397Z,9.443826
2023-04-16T00:49:47.345Z,9.443961
2023-04-16T00:50:47.295Z,9.444014
2023-04-16T00:51:47.576Z,9.443933
2023-04-16T00:52:47.302Z,9.443767
2023-04-16T00:53:47.807Z,9.443733
2023-04-16T00:54:47.284Z,9.443769
2023-04-16T00:56:20.575Z,9.443763
2023-04-16T00:57:20.686Z,9.443805
2023-04-16T00:58:21.054Z,9.443822
2023-04-16T00:59:20.805Z,9.443786
2023-04-16T01:00:20.844Z,9.443825
2023-04-16T01:01:21.899Z,9.443752
2023-04-16T01:02:20.709Z,9.443830
2023-04-16T01:02:47.276Z,9.443842
2023-04-16T01:04:19.750Z,9.443835
2023-04-16T01:05:21.674Z,9.443789
2023-04-16T01:05:47.201Z,9.443812
2023-04-16T01:06:47.215Z,9.443791
2023-04-16T01:07:47.195Z,9.443747
2023-04-16T01:08:47.180Z,9.443740
2023-04-16T01:09:47.222Z,9.443765
2023-04-16T01:10:47.175Z,9.443739
2023-04-16T01:11:47.250Z,9.443799
2023-04-16T01:12:47.136Z,9.443845
2023-04-16T01:13:48.168Z,9.443677
2023-04-16T01:14:47.139Z,9.443658
2023-04-16T01:15:47.206Z,9.443745
2023-04-16T01:16:47.177Z,9.443687
2023-04-16T01:17:48.211Z,9.443733
2023-04-16T01:18:47.136Z,9.443682
2023-04-16T01:19:47.125Z,9.443749
2023-04-16T01:20:47.095Z,9.443726
2023-04-16T01:21:47.148Z,9.443732
2023-04-16T01:22:47.102Z,9.443755
2023-04-16T01:23:47.096Z,9.443869
2023-04-16T01:24:47.069Z,9.443847
2023-04-16T01:25:47.088Z,9.443775
2023-04-16T01:26:47.080Z,9.443761
2023-04-16T01:27:47.090Z,9.443738
2023-04-16T01:28:47.061Z,9.443738
2023-04-16T01:29:47.068Z,9.443731
2023-04-16T01:30:47.016Z,9.443719
2023-04-16T01:31:47.180Z,9.443736
2023-04-16T01:32:47.095Z,9.443666
2023-04-16T01:33:47.044Z,9.443757
2023-04-16T01:34:47.029Z,9.443699
2023-04-16T01:35:47.019Z,9.443800
2023-04-16T01:36:47.067Z,9.443712
2023-04-16T01:37:47.005Z,9.443659
2023-04-16T01:38:46.995Z,9.443624
2023-04-16T01:39:46.992Z,9.443667
2023-04-16T01:40:46.978Z,9.443709
2023-04-16T01:41:46.996Z,9.443793
2023-04-16T01:42:46.989Z,9.443822
2023-04-16T01:43:46.973Z,9.443831
2023-04-16T01:44:46.952Z,9.443819
2023-04-16T01:45:46.953Z,9.443767
2023-04-16T01:46:46.948Z,9.443707
2023-04-16T01:47:46.986Z,9.443689
2023-04-16T01:48:46.935Z,9.443657
2023-04-16T01:49:46.922Z,9.443643
2023-04-16T01:50:46.936Z,9.443677
2023-04-16T01:51:46.913Z,9.443776
2023-04-16T01:52:46.926Z,9.443750
2023-04-16T01:53:46.888Z,9.443749
2023-04-16T01:54:46.899Z,9.443789
2023-04-16T01:55:46.894Z,9.443805
2023-04-16T01:56:46.909Z,9.443704
2023-04-16T01:57:46.874Z,9.443699
2023-04-16T01:58:46.860Z,9.443705
2023-04-16T01:59:46.864Z,9.443714
2023-04-16T02:00:46.944Z,9.443764
2023-04-16T02:01:46.966Z,9.443772
2023-04-16T02:02:47.023Z,9.443795
2023-04-16T02:03:47.019Z,9.443775
2023-04-16T02:04:46.852Z,9.443763
2023-04-16T02:05:46.859Z,9.443769
2023-04-16T02:06:46.851Z,9.443784
2023-04-16T02:07:46.868Z,9.443822
2023-04-16T02:08:46.804Z,9.443747
2023-04-16T02:09:46.836Z,9.443778
2023-04-16T02:10:46.804Z,9.443772
2023-04-16T02:11:46.810Z,9.443753
2023-04-16T02:12:46.794Z,9.443746
2023-04-16T02:13:46.766Z,9.443819
2023-04-16T02:14:46.778Z,9.443753
2023-04-16T02:15:46.778Z,9.443773
2023-04-16T02:16:46.808Z,9.443801
2023-04-16T02:17:46.918Z,9.443778
2023-04-16T02:18:46.753Z,9.443745
2023-04-16T02:19:46.741Z,9.443687
2023-04-16T02:20:46.755Z,9.443703
2023-04-16T02:21:47.034Z,9.443712
2023-04-16T02:22:46.721Z,9.443734
2023-04-16T02:23:46.748Z,9.443707
2023-04-16T02:24:46.717Z,9.443704
2023-04-16T02:25:47.694Z,9.443752
2023-04-16T02:26:46.701Z,9.443716
2023-04-16T02:27:46.724Z,9.443624
2023-04-16T02:28:46.679Z,9.443627
2023-04-16T02:29:46.684Z,9.443614
2023-04-16T02:30:46.687Z,9.443663
2023-04-16T02:31:46.696Z,9.443663
2023-04-16T02:32:46.783Z,9.443676
2023-04-16T02:33:46.646Z,9.443699
2023-04-16T02:34:46.648Z,9.443692
2023-04-16T02:35:46.651Z,9.443653
2023-04-16T02:36:46.642Z,9.443623
2023-04-16T02:37:46.618Z,9.443662
2023-04-16T02:38:46.634Z,9.443655
2023-04-16T02:39:46.630Z,9.443697
2023-04-16T02:40:46.627Z,9.443703
2023-04-16T02:41:46.650Z,9.443725
2023-04-16T02:42:46.634Z,9.443737
2023-04-16T02:43:46.597Z,9.443708
2023-04-16T02:44:46.602Z,9.443736
2023-04-16T02:45:46.638Z,9.443662
2023-04-16T02:46:47.210Z,9.443739
2023-04-16T02:47:46.635Z,9.443682
2023-04-16T02:48:46.577Z,9.443727
2023-04-16T02:49:46.595Z,9.443689
2023-04-16T02:50:46.562Z,9.443734
2023-04-16T02:51:46.565Z,9.443752
2023-04-16T02:52:46.531Z,9.443692
2023-04-16T02:53:46.574Z,9.443716
2023-04-16T02:54:46.528Z,9.443701
2023-04-16T02:55:47.516Z,9.443694
2023-04-16T02:56:46.542Z,9.443719
2023-04-16T02:57:46.545Z,9.443766
2023-04-16T02:58:46.570Z,9.443734
2023-04-16T02:59:46.524Z,9.443697
2023-04-16T03:00:46.492Z,9.443703
2023-04-16T03:01:46.598Z,9.443755
2023-04-16T03:02:46.571Z,9.443793
2023-04-16T03:03:46.540Z,9.443827
2023-04-16T03:04:46.463Z,9.443799
2023-04-16T03:05:46.517Z,9.443791
2023-04-16T03:06:46.467Z,9.443812
2023-04-16T03:07:46.462Z,9.443902
2023-04-16T03:08:46.474Z,9.443800
2023-04-16T03:09:46.441Z,9.443904
2023-04-16T03:10:46.457Z,9.443866
2023-04-16T03:11:46.437Z,9.443654
2023-04-16T03:12:46.430Z,9.443585
2023-04-16T03:13:46.411Z,9.443653
2023-04-16T03:14:46.445Z,9.443613
2023-04-16T03:15:46.455Z,9.443590
2023-04-16T03:16:46.406Z,9.443625
2023-04-16T03:17:46.444Z,9.443738
2023-04-16T03:18:46.373Z,9.443720
2023-04-16T03:19:46.376Z,9.443639
2023-04-16T03:20:46.397Z,9.443726
2023-04-16T03:21:46.406Z,9.443721
2023-04-16T03:22:46.395Z,9.443658
2023-04-16T03:23:46.433Z,9.443641
2023-04-16T03:24:46.355Z,9.443712
2023-04-16T03:25:46.373Z,9.443616
2023-04-16T03:26:46.349Z,9.443660
2023-04-16T03:27:46.349Z,9.443744
2023-04-16T03:28:46.343Z,9.443660
2023-04-16T03:29:46.324Z,9.443686
2023-04-16T03:30:46.333Z,9.443598
2023-04-16T03:31:46.340Z,9.443444
2023-04-16T03:32:46.318Z,9.443448
2023-04-16T03:33:46.326Z,9.443558
2023-04-16T03:34:46.297Z,9.443562
2023-04-16T03:35:46.304Z,9.443576
2023-04-16T03:36:47.271Z,9.443548
2023-04-16T03:37:46.300Z,9.443725
2023-04-16T03:38:46.314Z,9.443726
2023-04-16T03:39:46.262Z,9.443693
2023-04-16T03:40:46.259Z,9.443685
2023-04-16T03:41:46.260Z,9.443711
2023-04-16T03:42:46.267Z,9.443773
2023-04-16T03:43:46.244Z,9.443769
2023-04-16T03:44:46.246Z,9.443800
2023-04-16T03:45:46.246Z,9.443772
2023-04-16T03:46:46.274Z,9.443730
2023-04-16T03:47:46.230Z,9.443753
2023-04-16T03:48:46.214Z,9.443790
2023-04-16T03:49:46.207Z,9.443767
2023-04-16T03:50:46.205Z,9.443748
2023-04-16T03:51:47.223Z,9.443703
2023-04-16T03:52:46.207Z,9.443741
2023-04-16T03:53:46.195Z,9.443660
2023-04-16T03:54:46.187Z,9.443681
2023-04-16T03:55:46.189Z,9.443695
2023-04-16T03:56:46.194Z,9.443684
2023-04-16T03:57:46.169Z,9.443684
2023-04-16T03:58:46.188Z,9.443713
2023-04-16T03:59:46.139Z,9.443661
2023-04-16T04:00:46.136Z,9.443644
2023-04-16T04:01:46.224Z,9.443651
2023-04-16T04:02:46.311Z,9.443617
2023-04-16T04:03:46.290Z,9.443607
2023-04-16T04:04:46.296Z,9.443653
2023-04-16T04:05:46.178Z,9.443693
2023-04-16T04:06:46.091Z,9.443727
2023-04-16T04:07:46.100Z,9.443744
2023-04-16T04:08:46.111Z,9.443717
2023-04-16T04:09:46.136Z,9.443718
2023-04-16T04:10:46.091Z,9.443734
2023-04-16T04:11:46.056Z,9.443777
2023-04-16T04:12:46.066Z,9.443732
2023-04-16T04:13:46.064Z,9.443780
2023-04-16T04:14:46.047Z,9.443706
2023-04-16T04:15:46.054Z,9.443748
2023-04-16T04:16:46.142Z,9.443830
2023-04-16T04:17:46.159Z,9.443663
2023-04-16T04:18:46.048Z,9.443608
2023-04-16T04:19:58.126Z,9.443692
2023-04-16T04:20:48.014Z,9.443722
2023-04-16T04:21:46.008Z,9.443709
2023-04-16T04:22:46.010Z,9.443670
2023-04-16T04:23:46.026Z,9.443718
2023-04-16T04:24:46.006Z,9.443830
2023-04-16T04:25:46.035Z,9.443752
2023-04-16T04:26:45.979Z,9.443722
2023-04-16T04:27:45.977Z,9.443714
2023-04-16T04:28:46.015Z,9.443700
2023-04-16T04:29:45.986Z,9.443725
2023-04-16T04:30:45.962Z,9.443658
2023-04-16T04:31:46.008Z,9.443743
2023-04-16T04:32:46.030Z,9.443710
2023-04-16T04:33:45.958Z,9.443739
2023-04-16T04:34:45.934Z,9.443707
2023-04-16T04:35:45.936Z,9.443677
2023-04-16T04:36:45.907Z,9.443683
2023-04-16T04:37:45.917Z,9.443737
2023-04-16T04:38:45.899Z,9.443752
2023-04-16T04:39:46.686Z,9.443782
2023-04-16T04:40:45.885Z,9.443748
2023-04-16T04:41:45.880Z,9.443739
2023-04-16T04:42:45.876Z,9.443727
2023-04-16T04:43:45.923Z,9.443761
2023-04-16T04:44:45.864Z,9.443760
2023-04-16T04:45:45.878Z,9.443727
2023-04-16T04:46:45.862Z,9.443666
2023-04-16T04:47:45.933Z,9.443693
2023-04-16T04:48:45.851Z,9.443731
2023-04-16T04:49:45.836Z,9.443788
2023-04-16T04:50:45.865Z,9.443702
2023-04-16T04:51:45.823Z,9.443645
2023-04-16T04:52:45.838Z,9.443584
2023-04-16T04:53:45.810Z,9.443556
2023-04-16T04:54:45.829Z,9.443558
2023-04-16T04:55:45.802Z,9.443645
2023-04-16T04:56:45.845Z,9.443674
2023-04-16T04:57:45.791Z,9.443681
2023-04-16T04:58:45.792Z,9.443600
2023-04-16T04:59:45.789Z,9.443417
2023-04-16T05:00:45.895Z,9.443603
2023-04-16T05:01:45.778Z,9.443642
2023-04-16T05:02:45.849Z,9.443612
2023-04-16T05:03:45.838Z,9.443630
2023-04-16T05:04:45.758Z,9.443662
2023-04-16T05:05:45.746Z,9.443640
2023-04-16T05:06:45.742Z,9.443571
2023-04-16T05:07:45.750Z,9.443564
2023-04-16T05:08:45.744Z,9.443613
2023-04-16T05:09:45.795Z,9.443758
2023-04-16T05:10:45.704Z,9.443677
2023-04-16T05:11:45.719Z,9.443604
2023-04-16T05:12:47.183Z,9.443597
2023-04-16T05:13:45.738Z,9.443646
2023-04-16T05:14:45.720Z,9.443582
2023-04-16T05:15:45.686Z,9.443579
2023-04-16T05:16:45.703Z,9.443695
2023-04-16T05:17:45.678Z,9.443684
2023-04-16T05:18:45.669Z,9.443673
2023-04-16T05:19:45.694Z,9.443735
2023-04-16T05:20:45.654Z,9.443766
2023-04-16T05:21:45.645Z,9.443752
2023-04-16T05:22:45.642Z,9.443821
2023-04-16T05:23:45.645Z,9.443770
2023-04-16T05:24:45.661Z,9.443703
2023-04-16T05:25:45.635Z,9.443697
2023-04-16T05:26:45.617Z,9.443723
2023-04-16T05:27:45.636Z,9.443742
2023-04-16T05:28:45.617Z,9.443746
2023-04-16T05:29:46.115Z,9.443723
2023-04-16T05:30:45.653Z,9.443736
2023-04-16T05:31:45.599Z,9.443716
2023-04-16T05:32:45.644Z,9.443766
2023-04-16T05:33:45.577Z,9.443725
2023-04-16T05:34:45.621Z,9.443711
2023-04-16T05:35:45.573Z,9.443693
2023-04-16T05:36:45.558Z,9.443712
2023-04-16T05:37:45.610Z,9.443730
2023-04-16T05:38:45.552Z,9.443726
2023-04-16T05:39:45.542Z,9.443790
2023-04-16T05:40:45.539Z,9.443792
2023-04-16T05:41:45.539Z,9.443751
2023-04-16T05:42:45.545Z,9.443720
2023-04-16T05:43:45.580Z,9.443690
2023-04-16T05:44:46.177Z,9.443702
2023-04-16T05:45:46.247Z,9.443685
2023-04-16T05:46:45.494Z,9.443768
2023-04-16T05:47:45.547Z,9.443780
2023-04-16T05:48:45.492Z,9.443666
2023-04-16T05:49:45.499Z,9.443691
2023-04-16T05:50:46.223Z,9.443776
2023-04-16T05:51:45.480Z,9.443862
2023-04-16T05:52:45.520Z,9.443835
2023-04-16T05:53:45.445Z,9.443745
2023-04-16T05:54:45.481Z,9.443686
2023-04-16T05:55:45.549Z,9.443748
2023-04-16T05:56:45.446Z,9.443830
2023-04-16T05:57:45.436Z,9.443830
2023-04-16T05:58:45.430Z,9.443778
2023-04-16T05:59:45.498Z,9.443766
2023-04-16T06:00:45.478Z,9.443785
2023-04-16T06:01:45.427Z,9.443750
2023-04-16T06:02:45.531Z,9.443717
2023-04-16T06:03:45.647Z,9.443818
2023-04-16T06:04:45.379Z,9.443707
2023-04-16T06:05:45.427Z,9.443746
2023-04-16T06:06:45.384Z,9.443780
2023-04-16T06:07:45.418Z,9.443777
2023-04-16T06:08:45.379Z,9.443697
2023-04-16T06:09:45.368Z,9.443678
2023-04-16T06:10:45.370Z,9.443624
2023-04-16T06:11:45.360Z,9.443747
2023-04-16T06:12:45.334Z,9.443673
2023-04-16T06:13:45.353Z,9.443754
2023-04-16T06:14:45.342Z,9.443731
2023-04-16T06:15:45.344Z,9.443740
2023-04-16T06:16:45.316Z,9.443635
2023-04-16T06:17:45.338Z,9.443714
2023-04-16T06:18:45.338Z,9.443622
2023-04-16T06:19:45.322Z,9.443601
2023-04-16T06:20:45.303Z,9.443426
2023-04-16T06:21:45.305Z,9.443582
2023-04-16T06:22:45.349Z,9.443759
2023-04-16T06:23:45.272Z,9.443612
2023-04-16T06:24:45.261Z,9.443456
2023-04-16T06:25:45.396Z,9.443545
2023-04-16T06:26:45.259Z,9.443651
2023-04-16T06:27:45.253Z,9.443683
2023-04-16T06:28:45.256Z,9.443719
2023-04-16T06:29:45.230Z,9.443729
2023-04-16T06:30:45.254Z,9.443733
2023-04-16T06:31:45.239Z,9.443645
2023-04-16T06:32:45.315Z,9.443650
2023-04-16T06:33:45.247Z,9.443499
2023-04-16T06:34:45.223Z,9.443843
2023-04-16T06:35:45.263Z,9.443777
2023-04-16T06:36:45.236Z,9.443722
2023-04-16T06:37:45.175Z,9.443769
2023-04-16T06:38:45.172Z,9.443697
2023-04-16T06:39:45.194Z,9.443610
2023-04-16T06:40:45.169Z,9.443628
2023-04-16T06:41:45.201Z,9.443698
2023-04-16T06:42:45.715Z,9.443640
2023-04-16T06:43:46.137Z,9.443729
2023-04-16T06:44:45.163Z,9.443679
2023-04-16T06:45:45.157Z,9.443737
2023-04-16T06:46:45.166Z,9.443758
2023-04-16T06:47:45.190Z,9.443733
2023-04-16T06:48:45.137Z,9.443720
2023-04-16T06:49:45.122Z,9.443698
2023-04-16T06:50:45.165Z,9.443786
2023-04-16T06:51:45.118Z,9.443747
2023-04-16T06:52:45.096Z,9.443725
2023-04-16T06:53:45.125Z,9.443782
2023-04-16T06:54:45.079Z,9.443685
2023-04-16T06:55:45.080Z,9.443701
2023-04-16T06:56:45.103Z,9.443783
2023-04-16T06:57:45.072Z,9.443737
2023-04-16T06:58:45.077Z,9.443723
2023-04-16T06:59:45.072Z,9.443630
2023-04-16T07:00:45.070Z,9.443707
2023-04-16T07:01:45.072Z,9.443579
2023-04-16T07:02:45.216Z,9.443485
2023-04-16T07:03:45.242Z,9.443604
2023-04-16T07:04:45.021Z,9.443646
2023-04-16T07:05:45.000Z,9.443723
2023-04-16T07:06:45.006Z,9.443707
2023-04-16T07:07:45.019Z,9.443728
2023-04-16T07:08:45.002Z,9.443645
2023-04-16T07:09:45.015Z,9.443762
2023-04-16T07:10:44.995Z,9.443736
2023-04-16T07:11:44.978Z,9.443647
2023-04-16T07:12:44.965Z,9.443502
2023-04-16T07:13:44.996Z,9.443547
2023-04-16T07:14:44.965Z,9.443624
2023-04-16T07:15:44.960Z,9.443689
2023-04-16T07:16:45.041Z,9.443744
2023-04-16T07:17:44.998Z,9.443662
2023-04-16T07:18:44.961Z,9.443680
2023-04-16T07:19:44.935Z,9.443604
2023-04-16T07:20:44.926Z,9.443575
2023-04-16T07:21:44.915Z,9.443596
2023-04-16T07:22:44.957Z,9.443677
2023-04-16T07:23:44.906Z,9.443646
2023-04-16T07:24:44.899Z,9.443570
2023-04-16T07:25:45.008Z,9.443607
2023-04-16T07:26:44.923Z,9.443620
2023-04-16T07:27:44.991Z,9.443732
2023-04-16T07:28:44.907Z,9.443725
2023-04-16T07:29:44.866Z,9.443763
2023-04-16T07:30:44.872Z,9.443678
2023-04-16T07:31:44.918Z,9.443653
2023-04-16T07:32:44.914Z,9.443683
2023-04-16T07:33:44.865Z,9.443732
2023-04-16T07:34:44.853Z,9.443729
2023-04-16T07:35:44.855Z,9.443648
2023-04-16T07:36:44.837Z,9.443649
2023-04-16T07:37:44.902Z,9.443711
2023-04-16T07:38:44.837Z,9.443648
2023-04-16T07:39:44.815Z,9.443449
2023-04-16T07:40:44.851Z,9.443387
2023-04-16T07:41:44.853Z,9.443556
2023-04-16T07:42:45.736Z,9.443620
2023-04-16T07:43:44.791Z,9.443774
2023-04-16T07:44:44.776Z,9.443782
2023-04-16T07:45:44.806Z,9.443788
2023-04-16T07:46:47.354Z,9.443874
2023-04-16T07:47:45.975Z,9.443600
2023-04-16T07:48:44.744Z,9.443612
2023-04-16T07:49:44.787Z,9.443687
2023-04-16T07:50:44.730Z,9.443715
2023-04-16T07:51:44.752Z,9.443594
2023-04-16T07:52:44.754Z,9.443584
2023-04-16T07:53:44.716Z,9.443557
2023-04-16T07:54:44.741Z,9.443414
2023-04-16T07:55:44.716Z,9.443529
2023-04-16T07:56:44.723Z,9.443492
2023-04-16T07:57:44.708Z,9.443588
2023-04-16T07:58:44.710Z,9.443669
2023-04-16T07:59:44.697Z,9.443806
2023-04-16T08:00:44.672Z,9.443795
2023-04-16T08:01:44.671Z,9.443769
2023-04-16T08:02:44.924Z,9.443650
2023-04-16T08:03:45.028Z,9.443749
2023-04-16T08:04:45.550Z,9.443769
2023-04-16T08:05:44.687Z,9.443809
2023-04-16T08:06:44.654Z,9.443712
2023-04-16T08:07:44.709Z,9.443795
2023-04-16T08:08:44.621Z,9.443630
2023-04-16T08:09:44.643Z,9.443731
2023-04-16T08:10:44.619Z,9.443701
2023-04-16T08:11:44.617Z,9.443791
2023-04-16T08:12:44.651Z,9.443748
2023-04-16T08:13:44.650Z,9.443733
2023-04-16T08:14:44.630Z,9.443787
2023-04-16T08:15:44.598Z,9.443836
2023-04-16T08:16:44.597Z,9.443836
2023-04-16T08:17:44.636Z,9.443935
2023-04-16T08:18:44.600Z,9.443957
2023-04-16T08:19:44.614Z,9.443934
2023-04-16T08:20:44.666Z,9.443757
2023-04-16T08:21:44.595Z,9.443750
2023-04-16T08:22:44.550Z,9.443740
2023-04-16T08:23:44.571Z,9.443771
2023-04-16T08:24:44.563Z,9.443820
2023-04-16T08:25:44.515Z,9.443835
2023-04-16T08:26:44.586Z,9.443748
2023-04-16T08:27:44.552Z,9.443673
2023-04-16T08:28:44.540Z,9.443768
2023-04-16T08:29:44.530Z,9.443640
2023-04-16T08:30:44.544Z,9.443783
2023-04-16T08:31:44.593Z,9.443830
2023-04-16T08:32:44.583Z,9.443766
2023-04-16T08:33:44.503Z,9.443701
2023-04-16T08:34:44.520Z,9.443755
2023-04-16T08:35:44.497Z,9.443802
2023-04-16T08:36:44.474Z,9.443754
2023-04-16T08:37:44.475Z,9.443677
2023-04-16T08:38:44.446Z,9.443764
2023-04-16T08:39:44.521Z,9.443604
2023-04-16T08:40:44.469Z,9.443756
2023-04-16T08:41:44.463Z,9.443649
2023-04-16T08:42:44.430Z,9.443617
2023-04-16T08:43:44.530Z,9.443783
2023-04-16T08:44:44.428Z,9.443748
2023-04-16T08:45:44.430Z,9.443729
2023-04-16T08:46:44.679Z,9.443669
2023-04-16T08:47:44.438Z,9.443685
2023-04-16T08:48:44.414Z,9.443674
2023-04-16T08:49:44.415Z,9.443815
2023-04-16T08:50:44.530Z,9.443817
2023-04-16T08:51:44.375Z,9.443723
2023-04-16T08:52:44.402Z,9.443813
2023-04-16T08:53:44.361Z,9.443674
2023-04-16T08:54:44.391Z,9.443707
2023-04-16T08:55:44.465Z,9.443689
2023-04-16T08:56:44.360Z,9.443676
2023-04-16T08:57:44.355Z,9.443634
2023-04-16T08:58:44.355Z,9.443788
2023-04-16T08:59:44.384Z,9.443778
2023-04-16T09:00:44.339Z,9.443689
2023-04-16T09:01:44.359Z,9.443671
2023-04-16T09:02:44.497Z,9.443700
2023-04-16T09:03:44.465Z,9.443737
2023-04-16T09:04:44.475Z,9.443736
2023-04-16T09:05:44.298Z,9.443715
2023-04-16T09:06:44.772Z,9.443770
2023-04-16T09:07:44.331Z,9.443680
2023-04-16T09:08:44.274Z,9.443625
2023-04-16T09:09:44.276Z,9.443666
2023-04-16T09:10:44.267Z,9.443650
2023-04-16T09:11:44.300Z,9.443548
2023-04-16T09:12:44.259Z,9.443653
2023-04-16T09:13:44.241Z,9.443575
2023-04-16T09:14:44.270Z,9.443623
2023-04-16T09:15:44.361Z,9.443722
2023-04-16T09:16:44.342Z,9.443695
2023-04-16T09:17:44.338Z,9.443729
2023-04-16T09:18:44.258Z,9.443712
2023-04-16T09:19:44.249Z,9.443565
2023-04-16T09:20:44.212Z,9.443680
2023-04-16T09:21:44.206Z,9.443616
2023-04-16T09:22:45.225Z,9.443707
2023-04-16T09:23:44.195Z,9.443716
2023-04-16T09:24:44.247Z,9.443682
2023-04-16T09:25:44.190Z,9.443669
2023-04-16T09:26:44.165Z,9.443716
2023-04-16T09:27:44.204Z,9.443705
2023-04-16T09:28:44.166Z,9.443729
2023-04-16T09:29:44.157Z,9.443700
2023-04-16T09:30:44.420Z,9.443728
2023-04-16T09:31:44.144Z,9.443702
2023-04-16T09:32:44.211Z,9.443666
2023-04-16T09:33:44.130Z,9.443670
2023-04-16T09:34:44.750Z,9.443663
2023-04-16T09:35:44.123Z,9.443711
2023-04-16T09:36:44.123Z,9.443753
2023-04-16T09:37:44.144Z,9.443689
2023-04-16T09:38:44.123Z,9.443761
2023-04-16T09:39:44.122Z,9.443706
2023-04-16T09:40:44.139Z,9.443766
2023-04-16T09:41:44.098Z,9.443730
2023-04-16T09:42:44.114Z,9.443724
2023-04-16T09:43:44.124Z,9.443737
2023-04-16T09:44:44.139Z,9.443730
2023-04-16T09:45:44.111Z,9.443694
2023-04-16T09:46:44.070Z,9.443655
2023-04-16T09:47:44.159Z,9.443736
2023-04-16T09:48:44.092Z,9.443642
2023-04-16T09:49:44.076Z,9.443688
2023-04-16T09:50:44.085Z,9.443598
2023-04-16T09:51:44.078Z,9.443666
2023-04-16T09:52:44.065Z,9.443757
2023-04-16T09:53:44.101Z,9.443741
2023-04-16T09:54:44.102Z,9.443748
2023-04-16T09:55:45.871Z,9.443769
2023-04-16T09:56:44.063Z,9.443743
2023-04-16T09:57:44.053Z,9.443639
2023-04-16T09:58:44.035Z,9.443611
2023-04-16T09:59:44.025Z,9.443657
2023-04-16T10:00:44.013Z,9.443752
2023-04-16T10:01:44.026Z,9.443797
2023-04-16T10:02:44.065Z,9.443781
2023-04-16T10:03:44.086Z,9.443779
2023-04-16T10:04:44.416Z,9.443799
2023-04-16T10:05:44.726Z,9.443830
2023-04-16T10:06:43.957Z,9.443788
2023-04-16T10:07:43.933Z,9.443816
2023-04-16T10:08:43.937Z,9.443776
2023-04-16T10:09:44.004Z,9.443849
2023-04-16T10:10:43.939Z,9.443797
2023-04-16T10:11:43.940Z,9.443954
2023-04-16T10:12:43.896Z,9.443819
2023-04-16T10:13:43.950Z,9.443752
2023-04-16T10:14:43.907Z,9.443763
2023-04-16T10:15:43.917Z,9.443822
2023-04-16T10:16:43.955Z,9.443949
2023-04-16T10:17:43.931Z,9.443879
2023-04-16T10:18:43.907Z,9.443852
2023-04-16T10:19:43.867Z,9.443897
2023-04-16T10:20:43.864Z,9.443799
2023-04-16T10:22:18.417Z,9.443647
2023-04-16T10:22:43.894Z,9.443620
2023-04-16T10:24:17.317Z,9.443756
2023-04-16T10:25:18.795Z,9.443763
2023-04-16T10:26:16.313Z,9.443791
2023-04-16T10:27:17.333Z,9.443863
2023-04-16T10:28:17.309Z,9.443891
2023-04-16T10:29:17.240Z,9.443659
2023-04-16T10:30:20.128Z,9.443653
2023-04-16T10:31:16.321Z,9.443734
2023-04-16T10:31:43.873Z,9.443699
2023-04-16T10:32:43.868Z,9.443684
2023-04-16T10:33:43.883Z,9.443646
2023-04-16T10:34:43.799Z,9.443759
2023-04-16T10:35:43.821Z,9.443722
2023-04-16T10:37:17.357Z,9.443729
2023-04-16T10:37:43.831Z,9.443727
2023-04-16T10:38:43.814Z,9.443741
2023-04-16T10:39:43.854Z,9.443698
2023-04-16T10:40:43.790Z,9.443683
2023-04-16T10:41:43.819Z,9.443717
2023-04-16T10:42:43.750Z,9.443752
2023-04-16T10:43:43.840Z,9.443748
2023-04-16T10:44:45.634Z,9.443755
2023-04-16T10:45:44.734Z,9.443729
2023-04-16T10:46:43.813Z,9.443694
2023-04-16T10:47:43.804Z,9.443722
2023-04-16T10:48:49.819Z,9.443711
2023-04-16T10:49:45.706Z,9.443697
2023-04-16T10:50:43.666Z,9.443761
2023-04-16T10:51:43.752Z,9.443731
2023-04-16T10:52:43.748Z,9.443749
2023-04-16T10:53:43.709Z,9.443742
2023-04-16T10:54:43.801Z,9.443653
2023-04-16T10:55:43.641Z,9.443637
2023-04-16T10:56:43.630Z,9.443671
2023-04-16T10:57:43.649Z,9.443732
2023-04-16T10:58:43.691Z,9.443773
2023-04-16T10:59:43.664Z,9.443747
2023-04-16T11:00:43.706Z,9.443710
2023-04-16T11:01:43.636Z,9.443700
2023-04-16T11:02:44.167Z,9.443666
2023-04-16T11:03:43.731Z,9.443709
2023-04-16T11:04:44.088Z,9.443629
2023-04-16T11:05:43.575Z,9.443701
2023-04-16T11:06:43.604Z,9.443748
2023-04-16T11:07:43.657Z,9.443707
2023-04-16T11:08:54.055Z,9.443750
2023-04-16T11:09:45.571Z,9.443753
2023-04-16T11:10:43.566Z,9.443726
2023-04-16T11:11:43.514Z,9.443707
2023-04-16T11:12:43.581Z,9.443724
2023-04-16T11:13:43.624Z,9.443723
2023-04-16T11:14:44.515Z,9.443748
2023-04-16T11:15:44.373Z,9.443720
2023-04-16T11:16:43.493Z,9.443717
2023-04-16T11:17:43.600Z,9.443682
2023-04-16T11:18:50.901Z,9.443725
2023-04-16T11:19:44.506Z,9.443721
2023-04-16T11:20:43.488Z,9.443740
2023-04-16T11:21:43.462Z,9.443709
2023-04-16T11:22:43.468Z,9.443695
2023-04-16T11:23:43.448Z,9.443707
2023-04-16T11:24:43.478Z,9.443711
2023-04-16T11:25:43.448Z,9.443710
2023-04-16T11:26:43.411Z,9.443718
2023-04-16T11:27:43.422Z,9.443692
2023-04-16T11:28:43.477Z,9.443741
2023-04-16T11:29:45.020Z,9.443740
2023-04-16T11:30:43.435Z,9.443712
2023-04-16T11:31:43.439Z,9.443726
2023-04-16T11:32:43.428Z,9.443749
2023-04-16T11:33:43.421Z,9.443727
2023-04-16T11:34:43.373Z,9.443727
2023-04-16T11:35:43.437Z,9.443719
2023-04-16T11:36:43.354Z,9.443721
2023-04-16T11:37:43.390Z,9.443752
2023-04-16T11:38:43.365Z,9.443737
2023-04-16T11:39:43.337Z,9.443776
2023-04-16T11:40:43.475Z,9.443781
2023-04-16T11:41:43.459Z,9.443739
2023-04-16T11:42:43.463Z,9.443664
2023-04-16T11:43:43.336Z,9.443682
2023-04-16T11:44:43.365Z,9.443688